createdAt,value
2019-05-03T00:02:26.894Z,10.26
2019-05-03T00:05:21.968Z,10.30
2019-05-03T00:07:56.054Z,10.32
2019-05-03T00:10:26.811Z,10.36
2019-05-03T00:12:57.861Z,10.31
2019-05-03T00:15:35.829Z,10.31
2019-05-03T00:18:06.658Z,10.32
2019-05-03T00:20:37.973Z,10.34
2019-05-03T00:23:08.726Z,10.31
2019-05-03T00:25:39.556Z,10.36
2019-05-03T00:28:10.315Z,10.33
2019-05-03T00:30:42.328Z,10.31
2019-05-03T00:33:13.593Z,10.32
2019-05-03T00:36:03.418Z,10.25
2019-05-03T00:38:35.886Z,10.25
2019-05-03T00:41:06.703Z,10.33
2019-05-03T00:43:37.571Z,10.31
2019-05-03T00:46:08.398Z,10.29
2019-05-03T00:48:39.399Z,10.28
2019-05-03T00:51:11.764Z,10.19
2019-05-03T00:53:42.592Z,10.21
2019-05-03T00:56:13.733Z,10.18
2019-05-03T00:58:52.942Z,10.16
2019-05-03T01:01:24.134Z,10.17
2019-05-03T01:03:55.419Z,10.21
2019-05-03T01:06:26.509Z,10.18
2019-05-03T01:08:57.392Z,10.25
2019-05-03T01:11:28.487Z,10.27
2019-05-03T01:13:59.274Z,10.22
2019-05-03T01:16:31.522Z,10.27
2019-05-03T01:19:03.345Z,10.25
2019-05-03T01:21:34.387Z,10.24
2019-05-03T01:24:05.510Z,10.30
2019-05-03T01:26:36.288Z,10.26
2019-05-03T01:29:07.623Z,10.27
2019-05-03T01:31:38.900Z,10.20
2019-05-03T01:34:09.926Z,10.34
2019-05-03T01:36:42.609Z,10.34
2019-05-03T01:39:14.421Z,10.35
2019-05-03T01:41:45.435Z,10.31
2019-05-03T01:44:16.222Z,10.31
2019-05-03T01:46:48.169Z,10.36
2019-05-03T01:49:27.892Z,10.37
2019-05-03T01:52:22.204Z,10.37
2019-05-03T01:54:53.481Z,10.31
2019-05-03T01:57:24.441Z,10.31
2019-05-03T01:59:55.229Z,10.31
2019-05-03T02:02:46.574Z,10.32
2019-05-03T02:05:34.483Z,10.31
2019-05-03T02:08:05.341Z,10.34
2019-05-03T02:10:36.817Z,10.38
2019-05-03T02:13:07.685Z,10.37
2019-05-03T02:15:38.875Z,10.40
2019-05-03T02:18:12.960Z,10.42
2019-05-03T02:20:42.152Z,10.40
2019-05-03T02:23:12.918Z,10.46
2019-05-03T02:25:55.572Z,10.47
2019-05-03T02:28:17.391Z,10.45
2019-05-03T02:30:48.147Z,10.43
2019-05-03T02:33:18.970Z,10.43
2019-05-03T02:35:49.957Z,10.38
2019-05-03T02:38:23.322Z,10.37
2019-05-03T02:40:53.838Z,10.33
2019-05-03T02:43:38.021Z,10.36
2019-05-03T02:46:28.077Z,10.34
2019-05-03T02:49:11.244Z,10.35
2019-05-03T02:51:42.475Z,10.31
2019-05-03T02:54:15.629Z,10.21
2019-05-03T02:56:47.678Z,10.11
2019-05-03T02:59:18.509Z,10.07
2019-05-03T03:01:49.329Z,10.02
2019-05-03T03:04:20.166Z,10.02
2019-05-03T03:06:55.468Z,10.01
2019-05-03T03:09:26.131Z,9.85
2019-05-03T03:11:58.725Z,9.86
2019-05-03T03:14:31.001Z,9.79
2019-05-03T03:17:06.427Z,9.80
2019-05-03T03:19:36.518Z,9.71
2019-05-03T03:22:10.767Z,9.66
2019-05-03T03:24:45.788Z,9.70
2019-05-03T03:27:20.099Z,9.70
2019-05-03T03:29:55.369Z,9.63
2019-05-03T03:32:37.807Z,9.64
2019-05-03T03:35:20.215Z,9.62
2019-05-03T03:37:46.533Z,9.65
2019-05-03T03:40:18.650Z,9.58
2019-05-03T03:42:49.885Z,9.60
2019-05-03T03:45:20.787Z,9.57
2019-05-03T03:47:56.351Z,9.56
2019-05-03T03:50:27.982Z,9.53
2019-05-03T03:52:59.586Z,9.43
2019-05-03T03:55:32.156Z,9.35
2019-05-03T03:58:06.200Z,9.44
2019-05-03T04:00:36.590Z,9.40
2019-05-03T04:03:07.505Z,9.36
2019-05-03T04:05:38.417Z,9.40
2019-05-03T04:08:09.238Z,9.27
2019-05-03T04:10:40.220Z,9.31
2019-05-03T04:13:15.730Z,9.42
2019-05-03T04:16:05.385Z,9.36
2019-05-03T04:18:49.503Z,9.42
2019-05-03T04:21:20.805Z,9.43
2019-05-03T04:23:51.899Z,9.40
2019-05-03T04:26:29.457Z,9.41
2019-05-03T04:28:56.724Z,9.47
2019-05-03T04:31:27.950Z,9.47
2019-05-03T04:33:58.954Z,9.48
2019-05-03T04:36:29.702Z,9.42
2019-05-03T04:39:00.701Z,9.40
2019-05-03T04:41:35.554Z,9.46
2019-05-03T04:44:06.459Z,9.39
2019-05-03T04:46:37.571Z,9.35
2019-05-03T04:49:08.320Z,9.41
2019-05-03T04:51:39.290Z,9.37
2019-05-03T04:54:37.868Z,9.30
2019-05-03T04:57:08.838Z,9.23
2019-05-03T04:59:39.920Z,9.08
2019-05-03T05:02:10.978Z,9.01
2019-05-03T05:04:41.737Z,8.97
2019-05-03T05:07:15.268Z,8.82
2019-05-03T05:09:45.548Z,8.73
2019-05-03T05:12:16.827Z,8.71
2019-05-03T05:14:47.890Z,8.58
2019-05-03T05:17:27.986Z,8.46
2019-05-03T05:20:08.514Z,8.49
2019-05-03T05:22:40.018Z,8.56
2019-05-03T05:25:14.928Z,8.59
2019-05-03T05:28:04.753Z,8.61
2019-05-03T05:30:35.565Z,8.66
2019-05-03T05:33:08.898Z,8.76
2019-05-03T05:35:40.318Z,8.89
2019-05-03T05:38:11.298Z,9.02
2019-05-03T05:40:42.052Z,9.03
2019-05-03T05:43:15.124Z,9.11
2019-05-03T05:45:46.083Z,9.16
2019-05-03T05:48:24.500Z,9.30
2019-05-03T05:50:55.328Z,9.43
2019-05-03T05:53:26.481Z,9.47
2019-05-03T05:56:22.323Z,9.58
2019-05-03T05:59:06.225Z,9.62
2019-05-03T06:01:48.313Z,9.64
2019-05-03T06:04:19.056Z,9.54
2019-05-03T06:07:15.077Z,9.53
2019-05-03T06:09:55.581Z,9.46
2019-05-03T06:12:32.945Z,9.34
2019-05-03T06:15:08.693Z,9.29
2019-05-03T06:17:50.532Z,9.46
2019-05-03T06:20:31.145Z,9.51
2019-05-03T06:23:09.158Z,9.76
2019-05-03T06:25:42.191Z,10.09
2019-05-03T06:28:20.984Z,10.27
2019-05-03T06:31:14.900Z,10.45
2019-05-03T06:33:46.704Z,10.43
2019-05-03T06:36:36.439Z,10.70
2019-05-03T06:39:26.338Z,10.72
2019-05-03T06:42:19.149Z,10.87
2019-05-03T06:45:10.210Z,10.94
2019-05-03T06:47:40.283Z,10.95
2019-05-03T06:50:14.342Z,10.94
2019-05-03T06:52:45.156Z,10.98
2019-05-03T06:55:15.989Z,11.30
2019-05-03T06:57:49.499Z,11.53
2019-05-03T07:00:30.682Z,11.75
2019-05-03T07:03:15.190Z,11.88
2019-05-03T07:06:34.521Z,12.07
2019-05-03T07:09:18.350Z,11.87
2019-05-03T07:11:50.078Z,12.00
2019-05-03T07:14:21.082Z,12.21
2019-05-03T07:16:51.873Z,12.38
2019-05-03T07:19:24.868Z,12.20
2019-05-03T07:21:55.555Z,12.16
2019-05-03T07:24:26.286Z,12.46
2019-05-03T07:26:59.104Z,12.46
2019-05-03T07:29:29.823Z,12.69
2019-05-03T07:32:02.433Z,12.74
2019-05-03T07:34:35.034Z,12.92
2019-05-03T07:37:06.105Z,12.92
2019-05-03T07:39:37.057Z,13.47
2019-05-03T07:42:07.822Z,13.90
2019-05-03T07:44:39.047Z,14.10
2019-05-03T07:47:10.034Z,13.31
2019-05-03T07:49:40.816Z,13.03
2019-05-03T07:52:12.051Z,13.03
2019-05-03T07:54:44.981Z,12.65
2019-05-03T07:57:28.118Z,12.47
2019-05-03T07:59:59.259Z,12.47
2019-05-03T08:02:29.992Z,12.26
2019-05-03T08:05:00.814Z,12.12
2019-05-03T08:07:31.652Z,11.85
2019-05-03T08:10:05.285Z,11.71
2019-05-03T08:12:35.560Z,11.80
2019-05-03T08:15:06.453Z,11.80
2019-05-03T08:17:37.702Z,11.76
2019-05-03T08:20:08.617Z,11.98
2019-05-03T08:22:39.786Z,12.17
2019-05-03T08:25:11.906Z,12.38
2019-05-03T08:27:44.559Z,12.65
2019-05-03T08:30:20.530Z,12.67
2019-05-03T08:33:05.525Z,12.69
2019-05-03T08:35:44.685Z,12.60
2019-05-03T08:38:15.373Z,12.39
2019-05-03T08:40:47.860Z,12.44
2019-05-03T08:43:18.891Z,12.45
2019-05-03T08:45:49.883Z,12.57
2019-05-03T08:48:20.646Z,12.61
2019-05-03T08:50:51.773Z,12.57
2019-05-03T08:53:25.424Z,12.76
2019-05-03T08:55:55.471Z,12.88
2019-05-03T08:58:26.241Z,12.85
2019-05-03T09:00:57.031Z,12.75
2019-05-03T09:03:28.542Z,12.87
2019-05-03T09:05:59.550Z,13.60
2019-05-03T09:08:30.846Z,14.07
2019-05-03T09:11:11.024Z,14.07
2019-05-03T09:13:55.875Z,13.94
2019-05-03T09:16:26.974Z,13.67
2019-05-03T09:18:57.804Z,13.69
2019-05-03T09:21:29.030Z,13.63
2019-05-03T09:23:59.845Z,13.67
2019-05-03T09:26:30.604Z,13.83
2019-05-03T09:29:01.344Z,13.47
2019-05-03T09:31:32.339Z,13.47
2019-05-03T09:34:07.491Z,13.63
2019-05-03T09:36:35.686Z,13.97
2019-05-03T09:39:07.685Z,13.97
2019-05-03T09:41:38.625Z,13.95
2019-05-03T09:44:09.638Z,13.97
2019-05-03T09:46:40.445Z,14.10
2019-05-03T09:49:14.459Z,14.30
2019-05-03T09:51:44.463Z,14.76
2019-05-03T09:54:29.672Z,14.66
2019-05-03T09:57:00.830Z,14.57
2019-05-03T09:59:32.101Z,14.39
2019-05-03T10:02:04.810Z,14.60
2019-05-03T10:04:36.655Z,13.85
2019-05-03T10:07:08.605Z,14.20
2019-05-03T10:09:39.974Z,14.20
2019-05-03T10:12:16.311Z,14.55
2019-05-03T10:14:47.642Z,15.36
2019-05-03T10:17:52.397Z,15.81
2019-05-03T10:20:25.677Z,15.67
2019-05-03T10:22:59.615Z,15.24
2019-05-03T10:25:30.905Z,14.94
2019-05-03T10:28:01.873Z,15.35
2019-05-03T10:30:32.606Z,15.48
2019-05-03T10:33:15.602Z,15.63
2019-05-03T10:35:47.599Z,15.68
2019-05-03T10:38:18.654Z,15.72
2019-05-03T10:40:50.600Z,15.87
2019-05-03T10:43:21.649Z,15.94
2019-05-03T10:45:52.626Z,15.86
2019-05-03T10:48:24.843Z,15.61
2019-05-03T10:50:56.429Z,15.67
2019-05-03T10:53:35.227Z,15.65
2019-05-03T10:56:23.366Z,15.46
2019-05-03T10:59:00.285Z,15.42
2019-05-03T11:01:49.121Z,15.75
2019-05-03T11:04:20.137Z,16.40
2019-05-03T11:06:51.153Z,16.30
2019-05-03T11:09:21.894Z,16.23
2019-05-03T11:11:55.316Z,16.66
2019-05-03T11:14:25.810Z,17.08
2019-05-03T11:16:57.084Z,16.33
2019-05-03T11:19:28.312Z,16.46
2019-05-03T11:21:59.040Z,16.69
2019-05-03T11:24:29.779Z,16.76
2019-05-03T11:27:02.839Z,16.96
2019-05-03T11:29:35.553Z,17.00
2019-05-03T11:32:40.416Z,16.80
2019-05-03T11:35:15.933Z,16.45
2019-05-03T11:37:56.599Z,16.12
2019-05-03T11:40:27.348Z,16.03
2019-05-03T11:42:59.983Z,16.08
2019-05-03T11:45:30.836Z,16.51
2019-05-03T11:48:01.819Z,17.11
2019-05-03T11:50:34.774Z,16.86
2019-05-03T11:53:05.681Z,17.06
2019-05-03T11:55:36.596Z,17.43
2019-05-03T11:58:18.535Z,17.32
2019-05-03T12:01:10.800Z,16.76
2019-05-03T12:03:35.567Z,16.30
2019-05-03T12:06:06.493Z,16.29
2019-05-03T12:08:37.246Z,16.52
2019-05-03T12:11:07.992Z,16.65
2019-05-03T12:13:38.713Z,16.97
2019-05-03T12:16:17.129Z,17.02
2019-05-03T12:18:50.116Z,17.12
2019-05-03T12:21:18.082Z,16.69
2019-05-03T12:23:48.727Z,16.64
2019-05-03T12:26:20.834Z,16.40
2019-05-03T12:28:52.350Z,16.00
2019-05-03T12:31:33.345Z,15.68
2019-05-03T12:33:55.604Z,15.20
2019-05-03T12:36:44.986Z,15.16
2019-05-03T12:39:26.283Z,15.06
2019-05-03T12:41:48.629Z,15.19
2019-05-03T12:44:19.363Z,15.20
2019-05-03T12:46:50.107Z,15.28
2019-05-03T12:49:20.843Z,15.33
2019-05-03T12:51:51.848Z,15.42
2019-05-03T12:54:24.284Z,15.51
2019-05-03T12:56:56.065Z,15.61
2019-05-03T12:59:45.206Z,15.98
2019-05-03T13:02:38.749Z,16.07
2019-05-03T13:05:09.559Z,16.20
2019-05-03T13:07:45.628Z,16.17
2019-05-03T13:10:21.708Z,16.24
2019-05-03T13:12:53.041Z,16.07
2019-05-03T13:15:21.542Z,16.17
2019-05-03T13:17:52.267Z,16.19
2019-05-03T13:20:25.046Z,16.22
2019-05-03T13:22:55.957Z,16.35
2019-05-03T13:25:27.898Z,16.28
2019-05-03T13:27:58.850Z,16.29
2019-05-03T13:30:29.581Z,16.31
2019-05-03T13:33:02.619Z,16.33
2019-05-03T13:35:39.660Z,16.61
2019-05-03T13:38:41.577Z,16.63
2019-05-03T13:41:31.039Z,16.47
2019-05-03T13:44:25.495Z,16.30
2019-05-03T13:47:07.843Z,16.69
2019-05-03T13:50:19.966Z,16.72
2019-05-03T13:52:51.300Z,16.98
2019-05-03T13:55:22.106Z,16.77
2019-05-03T13:57:54.779Z,16.72
2019-05-03T14:00:25.566Z,16.96
2019-05-03T14:02:56.564Z,17.32
2019-05-03T14:05:28.263Z,17.34
2019-05-03T14:07:59.399Z,17.27
2019-05-03T14:10:30.616Z,17.01
2019-05-03T14:13:01.812Z,16.70
2019-05-03T14:15:34.819Z,16.55
2019-05-03T14:18:06.158Z,16.25
2019-05-03T14:20:55.066Z,16.00
2019-05-03T14:23:26.109Z,15.85
2019-05-03T14:25:57.177Z,15.75
2019-05-03T14:28:27.964Z,15.42
2019-05-03T14:30:58.779Z,15.18
2019-05-03T14:33:29.860Z,14.93
2019-05-03T14:36:00.826Z,14.71
2019-05-03T14:38:31.812Z,14.43
2019-05-03T14:41:05.370Z,14.40
2019-05-03T14:43:35.615Z,14.36
2019-05-03T14:46:06.420Z,14.32
2019-05-03T14:48:37.234Z,14.33
2019-05-03T14:51:08.262Z,14.48
2019-05-03T14:53:39.730Z,14.49
2019-05-03T14:56:15.390Z,14.69
2019-05-03T14:59:08.635Z,14.66
2019-05-03T15:01:44.711Z,14.86
2019-05-03T15:04:15.430Z,14.94
2019-05-03T15:06:46.418Z,14.95
2019-05-03T15:09:19.128Z,14.81
2019-05-03T15:11:50.751Z,14.82
2019-05-03T15:14:21.538Z,14.82
2019-05-03T15:16:52.532Z,14.83
2019-05-03T15:19:25.233Z,14.70
2019-05-03T15:21:55.704Z,14.57
2019-05-03T15:24:26.415Z,14.63
2019-05-03T15:26:57.232Z,14.62
2019-05-03T15:29:28.182Z,14.59
2019-05-03T15:31:58.911Z,14.62
2019-05-03T15:34:29.865Z,14.58
2019-05-03T15:37:00.819Z,14.56
2019-05-03T15:39:31.641Z,14.50
2019-05-03T15:42:02.633Z,14.48
2019-05-03T15:44:58.284Z,14.59
2019-05-03T15:47:48.265Z,14.59
2019-05-03T15:52:50.738Z,14.52
2019-05-03T15:55:21.477Z,14.32
2019-05-03T15:57:52.456Z,14.51
2019-05-03T16:00:24.478Z,14.47
2019-05-03T16:03:07.455Z,14.52
2019-05-03T16:05:29.144Z,14.51
2019-05-03T16:08:00.609Z,14.58
2019-05-03T16:10:31.548Z,14.62
2019-05-03T16:13:02.548Z,14.59
2019-05-03T16:15:35.049Z,14.51
2019-05-03T16:18:05.950Z,14.47
2019-05-03T16:20:39.445Z,14.39
2019-05-03T16:23:09.655Z,14.42
2019-05-03T16:25:40.625Z,14.46
2019-05-03T16:28:16.580Z,14.42
2019-05-03T16:30:55.562Z,14.25
2019-05-03T16:33:28.204Z,14.24
2019-05-03T16:35:59.016Z,14.21
2019-05-03T16:38:29.822Z,14.19
2019-05-03T16:41:01.283Z,14.19
2019-05-03T16:43:34.880Z,14.32
2019-05-03T16:46:05.965Z,14.36
2019-05-03T16:48:36.825Z,14.37
2019-05-03T16:51:08.089Z,14.34
2019-05-03T16:53:38.901Z,14.30
2019-05-03T16:56:09.959Z,14.26
2019-05-03T16:58:40.929Z,14.16
2019-05-03T17:01:13.566Z,14.02
2019-05-03T17:03:48.868Z,13.99
2019-05-03T17:06:26.881Z,13.94
2019-05-03T17:09:18.118Z,13.91
2019-05-03T17:12:36.573Z,13.78
2019-05-03T17:15:38.111Z,13.74
2019-05-03T17:18:29.535Z,13.76
2019-05-03T17:21:25.464Z,13.68
2019-05-03T17:24:06.320Z,13.50
2019-05-03T17:26:46.811Z,13.40
2019-05-03T17:29:30.992Z,13.43
2019-05-03T17:32:44.562Z,13.35
2019-05-03T17:35:25.728Z,13.35
2019-05-03T17:38:26.623Z,13.31
2019-05-03T17:41:32.191Z,13.28
2019-05-03T17:44:20.567Z,13.26
2019-05-03T17:47:04.289Z,13.30
2019-05-03T17:49:54.635Z,13.23
2019-05-03T17:52:49.353Z,13.23
2019-05-03T17:55:39.795Z,13.14
2019-05-03T17:58:30.164Z,13.11
2019-05-03T18:04:37.870Z,12.96
2019-05-03T18:07:34.806Z,12.80
2019-05-03T18:10:10.645Z,12.71
2019-05-03T18:12:49.542Z,12.49
2019-05-03T18:15:35.748Z,12.40
2019-05-03T18:18:15.759Z,12.12
2019-05-03T18:20:58.772Z,12.00
2019-05-03T18:23:39.071Z,11.87
2019-05-03T18:26:16.870Z,11.79
2019-05-03T18:29:08.030Z,11.59
2019-05-03T18:31:59.980Z,11.51
2019-05-03T18:34:32.517Z,11.36
2019-05-03T18:37:04.804Z,11.28
2019-05-03T18:39:35.715Z,11.21
2019-05-03T18:42:08.364Z,11.18
2019-05-03T18:44:46.743Z,11.15
2019-05-03T18:47:20.733Z,11.06
2019-05-03T18:49:51.828Z,11.01
2019-05-03T18:52:23.156Z,10.93
2019-05-03T18:54:55.182Z,10.89
2019-05-03T18:57:26.024Z,10.80
2019-05-03T18:59:56.984Z,10.77
2019-05-03T19:02:27.981Z,10.69
2019-05-03T19:04:58.959Z,10.62
2019-05-03T19:07:52.066Z,10.56
2019-05-03T19:10:30.973Z,10.50
2019-05-03T19:13:05.965Z,10.55
2019-05-03T19:15:36.795Z,10.48
2019-05-03T19:18:12.510Z,10.43
2019-05-03T19:20:45.447Z,10.44
2019-05-03T19:23:15.943Z,10.44
2019-05-03T19:25:49.572Z,10.39
2019-05-03T19:28:19.427Z,10.43
2019-05-03T19:30:50.578Z,10.37
2019-05-03T19:33:21.325Z,10.35
2019-05-03T19:35:54.919Z,10.32
2019-05-03T19:38:25.767Z,10.34
2019-05-03T19:40:56.579Z,10.31
2019-05-03T19:43:27.321Z,10.26
2019-05-03T19:45:58.059Z,10.23
2019-05-03T19:48:29.067Z,10.17
2019-05-03T19:50:59.789Z,10.08
2019-05-03T19:53:49.789Z,10.08
2019-05-03T19:56:21.615Z,10.06
2019-05-03T19:58:56.103Z,9.97
2019-05-03T20:01:36.730Z,9.95
2019-05-03T20:04:34.825Z,10.03
2019-05-03T20:07:31.306Z,9.94
2019-05-03T20:10:02.330Z,9.93
2019-05-03T20:12:35.273Z,9.79
2019-05-03T20:15:06.221Z,9.77
2019-05-03T20:17:36.941Z,9.80
2019-05-03T20:20:07.770Z,9.68
2019-05-03T20:22:38.573Z,9.73
2019-05-03T20:25:09.306Z,9.68
2019-05-03T20:27:40.402Z,9.66
2019-05-03T20:30:11.310Z,9.63
2019-05-03T20:32:42.027Z,9.65
2019-05-03T20:35:18.721Z,9.67
2019-05-03T20:37:45.740Z,9.68
2019-05-03T20:40:17.028Z,9.73
2019-05-03T20:43:01.100Z,9.76
2019-05-03T20:45:49.404Z,9.77
2019-05-03T20:48:21.086Z,9.77
2019-05-03T20:50:51.822Z,9.81
2019-05-03T20:53:22.769Z,9.82
2019-05-03T20:55:54.613Z,9.77
2019-05-03T20:58:25.585Z,9.78
2019-05-03T21:00:56.383Z,9.78
2019-05-03T21:03:27.109Z,9.78
2019-05-03T21:05:57.923Z,9.78
2019-05-03T21:08:28.651Z,9.75
2019-05-03T21:10:59.616Z,9.72
2019-05-03T21:13:39.989Z,9.72
2019-05-03T21:16:14.765Z,9.72
2019-05-03T21:19:04.872Z,9.73
2019-05-03T21:21:42.112Z,9.79
2019-05-03T21:24:17.851Z,9.72
2019-05-03T21:26:48.849Z,9.77
2019-05-03T21:29:19.814Z,9.77
2019-05-03T21:31:50.549Z,9.72
2019-05-03T21:34:21.353Z,9.73
2019-05-03T21:36:52.091Z,9.70
2019-05-03T21:39:24.714Z,9.70
2019-05-03T21:41:55.829Z,9.74
2019-05-03T21:44:30.648Z,9.73
2019-05-03T21:47:12.939Z,9.68
2019-05-03T21:49:44.739Z,9.65
2019-05-03T21:52:15.721Z,9.69
2019-05-03T21:54:46.452Z,9.71
2019-05-03T21:57:17.268Z,9.74
2019-05-03T21:59:48.008Z,9.69
2019-05-03T22:02:18.895Z,9.70
2019-05-03T22:04:49.973Z,9.68
2019-05-03T22:07:20.937Z,9.59
2019-05-03T22:09:51.877Z,9.60
2019-05-03T22:12:24.822Z,9.57
2019-05-03T22:15:04.964Z,9.58
2019-05-03T22:17:53.959Z,9.61
2019-05-03T22:20:37.345Z,9.55
2019-05-03T22:23:15.303Z,9.48
2019-05-03T22:25:46.050Z,9.44
2019-05-03T22:28:17.439Z,9.41
2019-05-03T22:30:48.391Z,9.37
2019-05-03T22:33:19.106Z,9.46
2019-05-03T22:35:50.088Z,9.38
2019-05-03T22:38:21.103Z,9.34
2019-05-03T22:40:51.823Z,9.28
2019-05-03T22:43:22.771Z,9.24
2019-05-03T22:45:54.807Z,9.19
2019-05-03T22:48:25.852Z,9.25
2019-05-03T22:50:56.583Z,9.12
2019-05-03T22:53:27.546Z,9.06
2019-05-03T22:55:58.380Z,9.07
2019-05-03T22:58:29.129Z,9.00
2019-05-03T23:00:59.841Z,9.02
2019-05-03T23:03:32.926Z,9.08
2019-05-03T23:06:05.087Z,9.04
2019-05-03T23:08:35.824Z,9.09
2019-05-03T23:11:06.638Z,9.17
2019-05-03T23:13:37.583Z,9.21
2019-05-03T23:16:08.643Z,9.24
2019-05-03T23:18:39.602Z,9.29
2019-05-03T23:21:15.997Z,9.32
2019-05-03T23:23:54.855Z,9.22
2019-05-03T23:26:26.086Z,9.19
2019-05-03T23:28:57.110Z,9.19
2019-05-03T23:31:27.850Z,9.10
2019-05-03T23:33:59.289Z,9.11
2019-05-03T23:36:33.665Z,9.09
2019-05-03T23:39:05.266Z,9.10
2019-05-03T23:41:36.274Z,9.10
2019-05-03T23:44:07.222Z,9.07
2019-05-03T23:46:45.456Z,9.15
2019-05-03T23:49:16.574Z,9.13
2019-05-03T23:51:52.337Z,9.21
2019-05-03T23:54:24.704Z,9.22
2019-05-03T23:56:55.856Z,9.11
2019-05-03T23:59:27.070Z,9.11
